今日のアクセス数

    岡山グライダークラブ活動状況掲示板

岡山グライダークラブ
岡山市浦安南町639-1 岡南飛行場
 使用機:シャイベ式 SF25C型 ファルケ   JA2330
      ヴァレンティン式17E型 タイフーン  JA2342
 練習日:毎日曜日  クラブルーム:電話 086-265-1810
この掲示板は岡山グライダークラブの活動状況をお知らせする掲示板です。
!!!この掲示板は投稿規制をしています。!!!
クラブ関連各種情報は 岡山グライダークラブクラブルーム      を       .
  ブリーフイング情報は  岡山グライダークラブブリーフィングルーム  をご覧下さい。 .
※写真はクリックすると拡大して見ることが出来ます。
岡南飛行場へのアクセス等は 岡南飛行場管理事務所 をご覧ください。
クラブの ホームページ ができました。

!!!お待たせしました。新型コロナ感染症の感染が下火になったことから見学者等の受入を再開します。!!!
  注)なお、見学等の際には一般的な感染対策(マスク、ソーシャルディスタンス、黙食等)を順守してください。

ページ 1 (1〜10)ホームページへ戻る

11月27日
by OGC at 2022/11/27(日) 20:09:18 No.20221127200807 コメント】  削除 引用
640 x 480 x 76,280バイト
No.1

11月27日
本日の参加者
  会員      16名
  その他     00名


@本日の様子






METAR
RJBK 270000Z 20003KT 180V240 20KM FEW025CU 11/8 Q1021 A3017
RJOB 270000Z 32005KT 280V020 CAVOK 12/08 Q1021
RJOT 270000Z 24006KT 9999 FEW025 13/08 Q1021
RJOA 270000Z VRB02KT CAVOK 12/05 Q1020
TAF
RJOB 262305Z 2700/2806 35006KT 9999 FEW030
RJOT 262305Z 2700/2806 25006KT 9999 FEW030
     BECMG 2700/2702 04005KT
RJOA 262305Z 2700/2806 15005KT 9999 FEW030


本日の天候は晴れでいいコンディションでしたが、機体の整備を行い
ました。


解散    17:00

本日のフライトはありません。
11月20日
by OGC at 2022/11/20(日) 19:06:13 No.20221120190319 コメント】  削除 引用
640 x 480 x 80,320バイト
No.1

11月20日
本日の参加者
  会員      12名
  その他     09名


@本日の様子






METAR
RJBK 200000Z VRB01KT 15KM FEW020CU 12/09 Q1020 A3014
RJOB 200000Z 08005KT 9999 FEW025 13/08 Q1020
RJOT 200000Z 11003KT 050V150 9999 FEW025 14/09 Q1020
RJOA 200000Z 08006KT CAVOK 13/09 Q1020
TAF
RJOB 192305Z 2000/2106 06005KT 9999 FEW015
RJOT 192306Z 2000/2106 04005KT 9999 FEW020 SCT060
     BECMG 2009/2011 22005KT
RJOA 192306Z 2000/2106 07005KT 9999 FEW030
     BECMG 2012/2015 32005KT


本日の天候は晴れのち曇りで、日没は16時58分でめっきり日が短くなりました。
あと、本日は見学者が9名で記録更新?、体験搭乗者は3名でした。コロナの影響か
朝ドラ「舞い上げれ」効果か?人気沸騰中ですね。


解散    17:00

1番機  11:00離陸 撤収機  16:10着陸 

SF25C JA2330 ファルケ     09Flt.3h05min  
17E   JA2342 タイフーン    00Flt.0h00min
合計                    09Flt.3h05min

11月13日
by OGC at 2022/11/13(日) 19:49:19 No.20221113194815 コメント】  削除 引用
640 x 480 x 74,394バイト
No.1

11月13日
本日の参加者
  会員      09名
  その他     00名


@本日の様子






METAR
RJBK 130000Z VRB02KT 02KM SHRA BR FEW006ST SCT015CU BKN030CU 14/14 Q1013 A2991
RJOB 130000Z VRB02KT 3500 -SHRA BR BCFG FEW000 BKN040 16/16 Q1013
RJOT 130000Z 15005KT 9999 -SHRA FEW002 SCT030 BKN080 16/16 Q1012
RJOA 130000Z VRB02KT 2000 -SHRA BCFG BR FEW000 SCT007 BKN009 15/14 Q1013
TAF
RJOB 122306Z 1300/1406 05005KT 7000 -SHRA FEW005 SCT008 BKN015
     TEMPO 1300/1306 3000 SHRA BR BCFG FEW000 SCT005 BKN008
     BECMG 1312/1315 32005KT
     BECMG 1321/1400 36006KT
RJOT 122308Z 1300/1406 15004KT 8000 -SHRA FEW001 SCT008 BKN015
     TEMPO 1302/1305 3000 SHRA BR BCFG FEW000 BKN005 BKN008
     BECMG 1305/1307 31007KT
     BECMG 1400/1403 35006KT
RJOA 122306Z 1300/1406 23004KT 8000 -SHRA FEW001 SCT008 BKN015
     TEMPO 1300/1304 3000 SHRA BR BCFG FEW000 BKN005 BKN008
     BECMG 1305/1307 34015KT
     TEMPO 1307/1310 33020G30KT


 飛行場周辺は岡山マラソンで午前中交通規制で北側から飛行場に近づけないよう
になっていました。雨でもマラソンは実施されていたようですが、こちらは雨のた
め朝からファルケの50時間点検を行いました。



解散    16:30

本日のフライトはありません。
11月06日
by OGC at 2022/11/6(日) 19:45:19 No.20221106194400 コメント】  削除 引用
640 x 480 x 74,120バイト
No.1

11月06日
本日の参加者
  会員      11名
  その他     03名


@本日の様子






METAR
RJBK 060000Z VRB01KT 30KM FEW030CU 12/10 Q1024 A3026
RJOB 060000Z 36003KT 320V050 9999 FEW020 13/09 Q1024
RJOT 060000Z VRB02KT 9999 FEW025 14/11 Q1024
RJOA 060000Z 05003KT 020V110 9999 FEW020 12/06 Q1024
TAF
RJOB 052308Z 0600/0706 35004KT 9999 FEW030
     BECMG 0603/0605 23005KT
     BECMG 0608/0610 01005KT
     BECMG 0703/0706 20005KT
RJOT 052306Z 0600/0706 05006KT 9999 FEW035
RJOA 052305Z 0600/0706 14005KT 9999 FEW030
     BECMG 0609/0611 34005KT
     BECMG 0621/0700 14004KT


 本日の天候は晴れ、風も穏やかで視程もよくベストコンディションで
した。今月から見学者、体験搭乗の受入を再開したこともあり、見学者1名、
体験搭乗2名と忙しい一日でした。
 訓練生はNAV訓練や科目訓練を行い、ライセンサーはサーマルを探し
て飛び回っていました。


解散    17:30

1番機  10:30離陸 撤収機  16:45着陸 

SF25C JA2330 ファルケ     10Flt.3h30min  
17E   JA2342 タイフーン    00Flt.0h00min
合計                    10Flt.3h30min
10月30日
by OGC at 2022/10/30(日) 19:31:15 No.20221030192707 コメント】  削除 引用
640 x 480 x 81,309バイト
No.1

10月30日
本日の参加者
  会員      14名
  その他     00名


@本日の様子






METAR
RJBK 300000Z VRB02KT 30KM FEW020CU SCT/// 12/08 Q1024 A3026
RJOB 300000Z 36003KT 280V050 9999 FEW015 15/08 Q1024
RJOT 300000Z VRB02KT 9999 FEW030 14/07 Q1024
RJOA 300000Z 02009KT 9999 FEW025 13/06 Q1024
TAF
RJOB 292305Z 3000/3106 03008KT 9999 FEW025
RJOT 292307Z 3000/3106 06006KT 9999 FEW030
RJOA 292306Z 3000/3106 34006KT 9999 FEW025
     BECMG 3000/3002 04008KT
     BECMG 3012/3015 34006KT
     BECMG 3100/3103 07006KT


 本日の天候は晴れ、風は朝方、穏やかでしたが、段々と風が強くなったり
弱まったり回ったり、予測が効かない風でした。
 訓練生はNAV訓練を行ったり科目訓練を行ったりしていたようで、
ライセンサーはサーマルがそこそこありソアリングを楽しんでいました。


解散    17:30

1番機  10:35離陸 撤収機  16:40着陸 

SF25C JA2330 ファルケ     10Flt.3h00min  
17E   JA2342 タイフーン    00Flt.0h00min
合計                    10Flt.3h00min
10月23日
by OGC at 2022/10/23(日) 20:06:36 No.20221023200530 コメント】  削除 引用
640 x 480 x 77,192バイト
No.1

10月23日
本日の参加者
  会員      14名
  その他     02名


@本日の様子






METAR
RJOB 230000Z VRB03KT 9999 FEW020 SCT/// 18/11 Q1015
RJOT 230000Z 27004KT 240V300 9999 FEW015 SCT025 BKN050 19/18 Q1016
RJOA 230000Z 30005KT 9999 FEW025 18/10 Q1016
TAF
RJOB 222305Z 2300/2406 34004KT 9999 FEW030 SCT045
     BECMG 2301/2303 29005KT
     BECMG 2306/2308 36007KT
     BECMG 2400/2403 28006KT
RJOT 222305Z 2300/2406 27010KT 9999 FEW030
     BECMG 2308/2310 15004KT
     BECMG 2403/2406 29009KT
RJOA 222308Z 2300/2406 29005KT 9999 FEW025
     BECMG 2310/2312 03007KT
     BECMG 2321/2400 33006KT


本日の天候は晴れ、風は穏やかな横風でした。
訓練生はソロ時間を稼いだり、基礎訓練を行ったりしていたようです。
一方、ライセンサーは雲一つない状況からサーマルは期待できないかなと思って
いましたが、意外や意外、そこそこサーマルがあり面白いコンディションでした。


解散    17:30

1番機  10:45離陸 撤収機  17:10着陸 

SF25C JA2330 ファルケ     09Flt.3h25min  
17E   JA2342 タイフーン    00Flt.0h00min
合計                    09Flt.3h25min
10月16日
by OGC at 2022/10/16(日) 21:18:06 No.20221016211650 コメント】  削除 引用
640 x 480 x 78,044バイト
No.1

10月16日
本日の参加者
  会員      14名
  その他     02名


@本日の様子






METAR
RJBK 160000Z VRB01KT 30KM FEW015CU 19/15 Q1019 A3009
RJOB 160000Z 04003KT 360V110 9999 FEW025 21/15 Q1019
RJOT 160000Z 07006KT 030V120 9999 FEW020 21/17 Q1019
RJOA 160000Z 09003KT 010V150 9999 FEW015 SCT025 19/16 Q1019
TAF
RJOB 152306Z 1600/1706 12004KT 9999 FEW025
     BECMG 1602/1604 16005KT
     BECMG 1612/1615 08004KT
     TEMPO 1618/1700 3000 -SHRA BR BCFG FEW000 SCT003 BKN007
RJOT 152305Z 1600/1706 04006KT 9999 FEW030
     BECMG 1615/1618 20005KT
RJOA 152307Z 1600/1706 12005KT 9999 FEW030
     BECMG 1602/1604 20005KT
     TEMPO 1615/1618 3000 -SHRA BR BCFG FEW000 SCT005 BKN008
     TEMPO 1618/1700 3000 SHRA BR BCFG FEW000 SCT005 BKN008

本日の天候は晴れで風も穏やかな訓練日和でした。
訓練生は実地試験の模擬訓練を行っていました。一方、ライセンサーは
上がる場所を探しにウロチョロしていました。


解散    17:30

1番機  11:35離陸 撤収機  17:10着陸 

SF25C JA2330 ファルケ     08Flt.3h10min  
17E   JA2342 タイフーン    00Flt.0h00min
合計                    08Flt.3h10min
10月09日
by OGC at 2022/10/12(水) 22:30:35 No.20221012222602 コメント】  削除 引用
1706 x 960 x 199,739バイト <この画像は大きいので別画面で表示します>
No.1

10月09日
本日の参加者
  会員      12名
  その他     02名


@本日の様子






METAR
RJBK 090000Z VRB01KT 30KM FEW030CUSCT180AC BKN/// 14/10 Q1022 A3018
RJOB 090000Z VRB02KT 9999 FEW020 SCT160 BKN180 14/12 Q1022
RJOT 090000Z 01002KT 9999 FEW020 SCT170 BKN/// 16/13 Q1021
RJOA 090000Z 07007KT 9999 FEW020 SCT140 BKN160 14/10 Q1021
TAF
RJOB 082307Z 0900/1006 08005KT 9999 FEW015 SCT045
     TEMPO 0906/0912 3000 SHRA BR BCFG FEW000 SCT003 BKN005
     TEMPO 0912/0918 1500 SHRA BR BCFG FEW000 SCT001 BKN003
     BECMG 0918/0921 26010KT
     TEMPO 0918/0921 3000 -SHRA BR BCFG FEW000 SCT003 BKN005
RJOT 082308Z 0900/1006 06005KT 8000 -SHRA FEW005 SCT015 BKN025
     TEMPO 0906/0915 3000 SHRA BR BCFG FEW000 BKN005 BKN008
     BECMG 0915/0918 26012KT
     TEMPO 1000/1006 27020G30KT
RJOA 082307Z 0900/1006 10005KT 9999 FEW025 SCT040
     BECMG 0908/0910 3000 -SHRA BR BCFG FEW000 SCT005 BKN008
     TEMPO 0910/0918 1500 SHRA BR BCFG FEW000 BKN003 BKN008
     BECMG 0918/0921 28012KT 9999 NSW FEW020 SCT030

更新が遅れて、すみません。m(__)m
天候は曇り後雨、夕方から雨が心配な天気でした。


解散    17:00

1番機  10:20離陸 撤収機  16:10着陸 

SF25C JA2330 ファルケ     08Flt.3h05min  
17E   JA2342 タイフーン    00Flt.0h00min
合計                    08Flt.3h05min
10月02日
by OGC at 2022/10/2(日) 18:44:12 No.20221002184114 コメント】  削除 引用
640 x 480 x 81,153バイト
No.1

10月02日
本日の参加者
  会員      12名
  その他     02名


@本日の様子






METAR
RJOB 020000Z VRB02KT 9999 FEW025 23/15 Q1021
RJOT 020000Z 05006KT 010V080 CAVOK 23/19 Q1021
RJOA 020000Z VRB01KT CAVOK 22/17 Q1022
TAF
RJOB 012307Z 0200/0306 10004KT 9999 FEW030
     BECMG 0201/0203 23005KT
     BECMG 0209/0211 02004KT
RJOT 012307Z 0200/0306 06004KT 9999 FEW030
RJOA 012306Z 0200/0306 15004KT 9999 FEW030
     BECMG 0212/0215 35005KT
     BECMG 0300/0303 15004KT

本日は晴れ、風は穏やかで、上昇気流もなく、基礎訓練日和でした。
訓練生は実地試験に向け、科目の練習に出たり、ソロチェックを行ったりしていました。
一方、ライセンサーは操縦教育証明の訓練やTGL訓練を実施していました。
また、コロナも収まりつつあることから、今月から見学のみ制限解除し、
来月から通常通りに制限を解除する予定です。

解散    17:00

1番機  10:25離陸 撤収機  16:20着陸 

SF25C JA2330 ファルケ     09Flt.3h05min  
17E   JA2342 タイフーン    00Flt.0h00min
合計                    09Flt.3h05min
09月25日
by OGC at 2022/9/25(日) 19:32:15 No.20220925193039 コメント】  削除 引用
640 x 480 x 80,580バイト
No.1

09月25日
本日の参加者
  会員      14名
  その他     00名


@本日の様子






METAR
RJBK 250000Z 08003KT 350V110 30KM FEW030CU BKN/// 21/14 Q1016 A3003
RJOB 250000Z 04003KT 350V100 9999 FEW030 SCT180 BKN/// 20/11 Q1017
RJOT 250000Z 09007KT 060V150 9999 FEW025 SCT170 BKN/// 21/15 Q1017
RJOA 250000Z 09005KT 060V150 9999 FEW020 SCT160 BKN/// 19/13 Q1017
TAF
RJOB 242305Z 2500/2606 08004KT 9999 FEW030
RJOT 242306Z 2500/2606 07008KT 9999 FEW025
RJOA 242305Z 2500/2606 12006KT 9999 FEW025
     BECMG 2512/2515 32007KT

本日は晴れ、風は穏やか、訓練生は実地試験に向け、科目の練習に出たり、TGLの訓練をしたり
各々の課題克服に向け、がんばっていました。一方、ライセンサーは上昇気流を探して飛び回って
いましたが、今日は上がらない一日だったようです。


解散    18:00

1番機  10:35離陸 撤収機  17:00着陸 

SF25C JA2330 ファルケ     09Flt.3h40min  
17E   JA2342 タイフーン    00Flt.0h00min
合計                    09Flt.3h40min
ホームページへ 全 55 件 [ 1 2 3 4 5 6 ]

モータースポーツ | 管理者へメール | お知らせ | 一括削除
携帯から使う方法 | ヘルプ | 利用規約 | 違反報告 | 管理パネル



- 無料レンタル掲示板 -